Skip to main content.

Regional Weather Summary








Warning: A non-numeric value encountered in /home/nwawlqmy/public_html/regionalwx.php on line 172
Station Name-Location
 
Time
 
Baro
Pressure
Outside
Temp
 Temp
Max
Temp
Min
Dew
Point
RH
%
Wind
Speed
Average
Wind Dir
Wind Max
Last Hr
Wind
Gust Max
Rain
Today
Rain
Last Hr
Rain Rate
in/hr
Rain
Month
Rain
Year
Vermilionweather-Near Lake Vermilion07:33:1430.21 inHg 6.3°F 13.6°F6.3°F-0.6°F73% 5.9 mph NNW11.5 mph 19.6 mph 0.00in0.00in0.00in/hr0.43in0.43in
EMA HQ's-Home Gardens- -:- -:- -Old Data  - -.-    - -.-- -.-- -.-- -%- - -.-- -- - -.-- - -.-- - . -
Warning: A non-numeric value encountered in /home/nwawlqmy/public_html/regionalwx.php on line 172
0.00in
0.00in/hr- - . -- - . -
Mahomet07:33:0630.27 inHg 6.1°F    14.2°F5.9°F1.2°F80%5.6 mph WNW9.2 mph 12.7 mph 0.00in0.00in0.00in/hr0.59in0.59in

Version 2.12 6th August 2012

If you own a personal weather station
and would like to have your data displayed here,
use the "Contact admin" link at the bottom of the page
to find out how.

For full weather information visit the individual websites above
This page was created by Clevedon Weather using some basic php scripts from TNET Weather.
The script for displaying the data has been produced by Clevedon Weather but has been modified by Vermilionweather.com for it's own use.



Nearby METAR Reports

Nearby METAR Reports

 

KDNV - Danville, Illinois, USA
Distance from station: 0 0mi, 0km
Updated: Tue, 25-Jan-2022 7:15am CST
Clear
Clear
 Wind from NW
Wind: NW 7 mph , 11 km/h
Temperature: 7°F , -14°C
Wind Chill: -5°F , -21°C
Dew Point: 1°F , -17°C
Humidity: 78%
Barometer: 30.22 inHg , 1023.4 hPa
Clouds: Clear
Visibility: 10 miles , 16 km
2022/01/25 13:15 KDNV 251315Z AUTO 31006KT 10SM CLR M14/M17 A3022 RMK AO2 T11421172
KTIP - Rantoul, Illinois, USA
Distance from station: W 30mi, 48km
Updated: Tue, 25-Jan-2022 7:15am CST
Clear
Clear
 
Temperature: 5°F , -15°C
Dew Point: -0°F , -18°C
Humidity: 78%
Barometer: 30.22 inHg , 1023.4 hPa
Clouds: Clear
Visibility: 10 miles , 16 km
2022/01/25 13:15 KTIP 251315Z AUTO 10SM CLR M15/M18 A3022 RMK AO2 T11531185
 
KPRG - Paris, Illinois, USA
Distance from station: S 35mi, 56km
Updated: Tue, 25-Jan-2022 7:15am CST
Clear
Clear
 Wind from NW
Wind: NW 7 mph , 11 km/h
Temperature: 7°F , -14°C
Wind Chill: -5°F , -21°C
Dew Point: 5°F , -15°C
Humidity: 92%
Barometer: 30.23 inHg , 1023.7 hPa
Clouds: Clear
Visibility: 10 miles , 16 km
2022/01/25 13:15 KPRG 251315Z AUTO 32006KT 10SM CLR M14/M15 A3023 RMK AO2 T11381155
KCMI - Champaign/Urbana, Illinois, USA
Distance from station: WSW 37mi, 60km
Updated: Tue, 25-Jan-2022 6:53am CST
Clear
Clear
 Wind from NW
Wind: NW 9 mph , 15 km/h
Temperature: 7°F , -14°C
Wind Chill: -6°F , -21°C
Dew Point: -0°F , -18°C
Humidity: 72%
Barometer: 30.22 inHg , 1023.4 hPa
Clouds: Clear
Visibility: 10 miles , 16 km
2022/01/25 12:53 KCMI 251253Z 32008KT 10SM CLR M14/M18 A3022 RMK AO2 SLP245 T11441178 $
 
KLAF - Lafayette, Indiana, USA
Distance from station: ENE 38mi, 61km
Updated: Tue, 25-Jan-2022 6:54am CST
Clear
Clear
 Wind from WNW
Wind: WNW 6 mph , 9 km/h
Temperature: 7°F , -14°C
Wind Chill: -4°F , -20°C
Dew Point: -0°F , -18°C
Humidity: 72%
Barometer: 30.19 inHg , 1022.4 hPa
Clouds: Clear
Visibility: 10 miles , 16 km
2022/01/25 12:54 KLAF 251254Z 30005KT 10SM CLR M14/M18 A3019 RMK AO2 SLP232 T11441178 $
KCFJ - Crawfordsville, Indiana, USA
Distance from station: ESE 39mi, 63km
Updated: Tue, 25-Jan-2022 7:15am CST
Clear
Clear
 
Temperature: 5°F , -15°C
Dew Point: -4°F , -20°C
Humidity: 66%
Barometer: 30.18 inHg , 1022 hPa
Clouds: Clear
Visibility: 10 miles , 16 km
2022/01/25 13:15 KCFJ 251315Z AUTO 10SM CLR M15/M20 A3018 RMK AO2 T11501200

Metar display script from Saratoga-Weather.org

Go To Top